Flight Track Log - Related Links

Times and Time Zones

All times are in EST time to prevent confusion due to time zone crossing. See the CCA188 flight status page for this flight to view local times or setup timezone preferences in your user account.

Time Position Orientation Groundspeed Altitude Reporting Facility
EST Latitude Longitude Course Direction KTS MPH feet Rate Location/Type
Fri 06:58:00 AM 25.4435 121.4550 347° North  Level Estimated
Fri 06:59:00 AM 25.5370 121.4307 347° North  Level Estimated
Fri 07:00:00 AM 25.6305 121.4064 347° North  Level Estimated
Fri 07:01:00 AM 25.7240 121.3821 347° North  Level Estimated
Fri 07:02:00 AM 25.8175 121.3577 347° North  Level Estimated
Fri 07:03:00 AM 25.9110 121.3333 347° North  Level Estimated
Fri 07:04:00 AM 26.0044 121.3088 347° North  Level Estimated
Fri 07:05:00 AM 26.0979 121.2843 347° North  Level Estimated
Fri 07:06:00 AM 26.1914 121.2598 347° North  Level Estimated
Fri 07:07:00 AM 26.2849 121.2352 347° North  Level Estimated
Fri 07:08:00 AM 26.3783 121.2106 347° North  Level Estimated
Fri 07:09:00 AM 26.4718 121.1859 347° North  Level Estimated
Fri 07:10:00 AM 26.5653 121.1612 347° North  Level Estimated
Fri 07:11:00 AM 26.6587 121.1365 347° North  Level Estimated
Fri 07:12:00 AM 26.7521 121.1117 347° North  Level Estimated
Fri 07:13:00 AM 26.8456 121.0869 347° North  Level Estimated
Fri 07:14:00 AM 26.9390 121.0620 347° North  Level Estimated
Fri 07:15:00 AM 27.0325 121.0371 347° North  Level Estimated
Fri 07:16:00 AM 27.1259 121.0122 347° North  Level Estimated
Fri 07:17:00 AM 27.2193 120.9872 347° North  Level Estimated
Fri 07:18:00 AM 27.3127 120.9622 347° North  Level Estimated
Fri 07:19:00 AM 27.4062 120.9371 347° North  Level Estimated
Fri 07:20:00 AM 27.4996 120.9120 347° North  Level Estimated
Fri 07:21:00 AM 27.5930 120.8868 347° North  Level Estimated
Fri 07:22:00 AM 27.6864 120.8617 347° North  Level Estimated
Fri 07:23:00 AM 27.7798 120.8364 347° North  Level Estimated
Fri 07:24:00 AM 27.8732 120.8111 347° North  Level Estimated
Fri 07:25:00 AM 27.9666 120.7858 347° North  Level Estimated
Fri 07:26:00 AM 28.0600 120.7605 347° North  Level Estimated
Fri 07:27:00 AM 28.1533 120.7350 347° North  Level Estimated
Fri 07:28:00 AM 28.2467 120.7096 346° North  Level Estimated
Fri 07:29:00 AM 28.3401 120.6841 346° North  Level Estimated
Fri 07:30:00 AM 28.4335 120.6585 346° North  Level Estimated
Fri 07:31:00 AM 28.5268 120.6329 346° North  Level Estimated
Fri 07:32:00 AM 28.6202 120.6073 346° North  Level Estimated
Fri 07:33:00 AM 28.7135 120.5816 346° North  Level Estimated
Fri 07:34:00 AM 28.8069 120.5559 346° North  Level Estimated
Fri 07:35:00 AM 28.9002 120.5301 346° North  Level Estimated
Fri 07:36:00 AM 28.9936 120.5043 346° North  Level Estimated
Fri 07:37:00 AM 29.0869 120.4784 346° North  Level Estimated
Fri 07:38:00 AM 29.1802 120.4525 346° North  Level Estimated
Fri 07:39:00 AM 29.2735 120.4266 346° North  Level Estimated
Fri 07:40:00 AM 29.3669 120.4006 346° North  Level Estimated
Fri 07:41:00 AM 29.4602 120.3745 346° North  Level Estimated
Fri 07:42:00 AM 29.5535 120.3484 346° North  Level Estimated
Fri 07:43:00 AM 29.6468 120.3222 346° North  Level Estimated
Fri 07:44:00 AM 29.7401 120.2960 346° North  Level Estimated
Fri 07:45:00 AM 29.8334 120.2698 346° North  Level Estimated
Fri 07:46:00 AM 29.9267 120.2435 346° North  Level Estimated
Fri 07:47:00 AM 30.0199 120.2171 346° North  Level Estimated
Fri 07:48:00 AM 30.1132 120.1907 346° North  Level Estimated
Fri 07:49:00 AM 30.2065 120.1643 346° North  Level Estimated
Fri 07:50:00 AM 30.2998 120.1378 346° North  Level Estimated
Fri 07:51:00 AM 30.3930 120.1112 346° North  Level Estimated
Fri 07:52:00 AM 30.4863 120.0846 346° North  Level Estimated
Fri 07:53:00 AM 30.5795 120.0580 346° North  Level Estimated
Fri 07:54:00 AM 30.6728 120.0313 346° North  Level Estimated
Fri 07:55:00 AM 30.7660 120.0045 346° North  Level Estimated
Fri 07:56:00 AM 30.8592 119.9777 346° North  Level Estimated
Fri 07:57:00 AM 30.9525 119.9509 346° North  Level Estimated
Fri 07:58:00 AM 31.0457 119.9240 346° North  Level Estimated
Fri 07:59:00 AM 31.1389 119.8970 346° North  Level Estimated
Fri 08:00:00 AM 31.2321 119.8700 346° North  Level Estimated
Fri 08:01:00 AM 31.3253 119.8429 346° North  Level Estimated
Fri 08:02:00 AM 31.4185 119.8158 346° North  Level Estimated
Fri 08:03:00 AM 31.5117 119.7886 346° North  Level Estimated
Fri 08:04:00 AM 31.6049 119.7614 346° North  Level Estimated
Fri 08:05:00 AM 31.6981 119.7341 346° North  Level Estimated
Fri 08:06:00 AM 31.7913 119.7067 346° North  Level Estimated
Fri 08:07:00 AM 31.8844 119.6794 346° North  Level Estimated
Fri 08:08:00 AM 31.9776 119.6519 346° North  Level Estimated
Fri 08:09:00 AM 32.0708 119.6244 346° North  Level Estimated
Fri 08:10:00 AM 32.1639 119.5968 346° North  Level Estimated
Fri 08:11:00 AM 32.2571 119.5692 346° North  Level Estimated
Fri 08:12:00 AM 32.3502 119.5415 346° North  Level Estimated
Fri 08:13:00 AM 32.4433 119.5138 346° North  Level Estimated
Fri 08:14:00 AM 32.5365 119.4860 346° North  Level Estimated
Fri 08:15:00 AM 32.6296 119.4582 346° North  Level Estimated
Fri 08:16:00 AM 32.7227 119.4303 346° North  Level Estimated
Fri 08:17:00 AM 32.8158 119.4023 346° North  Level Estimated
Fri 08:18:00 AM 32.9089 119.3743 346° North  Level Estimated
Fri 08:19:00 AM 33.0020 119.3462 346° North  Level Estimated
Fri 08:20:00 AM 33.0951 119.3180 346° North  Level Estimated
Fri 08:21:00 AM 33.1882 119.2898 346° North  Level Estimated
Fri 08:22:00 AM 33.2813 119.2616 346° North  Level Estimated
Fri 08:23:00 AM 33.3743 119.2333 346° North  Level Estimated
Fri 08:24:00 AM 33.4674 119.2049 346° North  Level Estimated
Fri 08:25:00 AM 33.5605 119.1765 346° North  Level Estimated
Fri 08:26:00 AM 33.6535 119.1479 346° North  Level Estimated
Fri 08:27:00 AM 33.7466 119.1194 346° North  Level Estimated
Fri 08:28:00 AM 33.8396 119.0908 346° North  Level Estimated
Fri 08:29:00 AM 33.9326 119.0621 346° North  Level Estimated
Fri 08:30:00 AM 34.0257 119.0333 346° North  Level Estimated
Fri 08:31:00 AM 34.1187 119.0045 346° North  Level Estimated
Fri 08:32:00 AM 34.2117 118.9756 346° North  Level Estimated
Fri 08:33:00 AM 34.3047 118.9467 346° North  Level Estimated
Fri 08:34:00 AM 34.3977 118.9177 346° North  Level Estimated
Fri 08:35:00 AM 34.4907 118.8886 346° North  Level Estimated
Fri 08:36:00 AM 34.5837 118.8595 346° North  Level Estimated
Fri 08:37:00 AM 34.6767 118.8303 346° North  Level Estimated
Fri 08:38:00 AM 34.7696 118.8010 346° North  Level Estimated
Fri 08:39:00 AM 34.8626 118.7717 345° North  Level Estimated
Fri 08:40:00 AM 34.9556 118.7422 345° North  Level Estimated
Fri 08:41:00 AM 35.0485 118.7128 345° North  Level Estimated
Fri 08:42:00 AM 35.1414 118.6833 345° North  Level Estimated
Fri 08:43:00 AM 35.2344 118.6536 345° North  Level Estimated
Fri 08:44:00 AM 35.3273 118.6240 345° North  Level Estimated
Fri 08:45:00 AM 35.4202 118.5942 345° North  Level Estimated
Fri 08:46:00 AM 35.5131 118.5644 345° North  Level Estimated
Fri 08:47:00 AM 35.6061 118.5346 345° North  Level Estimated
Fri 08:48:00 AM 35.6990 118.5046 345° North  Level Estimated
Fri 08:49:00 AM 35.7919 118.4746 345° North  Level Estimated
Fri 08:50:00 AM 35.8847 118.4445 345° North  Level Estimated
Fri 08:51:00 AM 35.9776 118.4143 345° North  Level Estimated
Fri 08:52:00 AM 36.0705 118.3841 345° North  Level Estimated
Fri 08:53:00 AM 36.1633 118.3538 345° North  Level Estimated
Fri 08:54:00 AM 36.2562 118.3234 345° North  Level Estimated
Fri 08:55:00 AM 36.3490 118.2930 345° North  Level Estimated
Fri 08:56:00 AM 36.4419 118.2625 345° North  Level Estimated
Fri 08:57:00 AM 36.5347 118.2319 345° North  Level Estimated
Fri 08:58:00 AM 36.6275 118.2012 345° North  Level Estimated
Fri 08:59:00 AM 36.7203 118.1705 345° North  Level Estimated
Fri 09:00:00 AM 36.8132 118.1397 345° North  Level Estimated
Fri 09:01:00 AM 36.9060 118.1088 345° North  Level Estimated
Fri 09:02:00 AM 36.9987 118.0778 345° North  Level Estimated
Fri 09:03:00 AM 37.0915 118.0468 345° North  Level Estimated
Fri 09:04:00 AM 37.1843 118.0157 345° North  Level Estimated
Fri 09:05:00 AM 37.2771 117.9845 345° North  Level Estimated
Fri 09:06:00 AM 37.3698 117.9532 345° North  Level Estimated
Fri 09:07:00 AM 37.4626 117.9219 345° North  Level Estimated
Fri 09:08:00 AM 37.5553 117.8905 345° North  Level Estimated
Fri 09:09:00 AM 37.6481 117.8590 345° North  Level Estimated
Fri 09:10:00 AM 37.7408 117.8274 345° North  Level Estimated
Fri 09:11:00 AM 37.8335 117.7957 345° North  Level Estimated
Fri 09:12:00 AM 37.9262 117.7640 345° North  Level Estimated
Fri 09:13:00 AM 38.0189 117.7322 345° North  Level Estimated
Fri 09:14:00 AM 38.1116 117.7003 345° North  Level Estimated
Fri 09:15:00 AM 38.2043 117.6683 345° North  Level Estimated
Fri 09:16:00 AM 38.2970 117.6362 345° North  Level Estimated
Fri 09:17:00 AM 38.3896 117.6041 345° North  Level Estimated
Fri 09:18:00 AM 38.4823 117.5719 345° North  Level Estimated
Fri 09:19:00 AM 38.5749 117.5396 345° North  Level Estimated
Fri 09:20:00 AM 38.6676 117.5072 345° North  Level Estimated
Fri 09:21:00 AM 38.7602 117.4747 345° North  Level Estimated
Fri 09:22:00 AM 38.8528 117.4421 345° North  Level Estimated
Fri 09:23:00 AM 38.9454 117.4095 345° North  Level Estimated
Fri 09:24:00 AM 39.0380 117.3768 345° North  Level Estimated
Fri 09:25:00 AM 39.1244 117.3462 345° North  Level Estimated
Fri 09:26:00 AM 39.1244 117.3462 14° North  Level Estimated
Fri 09:27:00 AM 39.1244 117.3462 14° North  Level Estimated
Fri 09:28:00 AM 39.1244 117.3462 14° North  Level Estimated
Fri 09:29:00 AM 39.1244 117.3462 14° North  Level Estimated
Fri 09:30:00 AM 39.1244 117.3462 14° North  Level Estimated
Fri 09:31:00 AM 39.1244 117.3462 14° North  Level Estimated
Fri 09:32:00 AM 39.1244 117.3462 14° North  Level Estimated
Fri 09:33:00 AM 39.1244 117.3462 14° North  Level Estimated
Fri 09:34:00 AM 39.1244 117.3462 14° North  Level Estimated
Fri 09:35:00 AM 39.1244 117.3462 14° North  Level Estimated
Fri 09:36:00 AM 39.1244 117.3462 14° North  Level Estimated
Fri 09:37:00 AM 39.1244 117.3462 14° North  Level Estimated
Fri 09:38:00 AM 39.1244 117.3462 14° North  Level Estimated
Fri 09:39:00 AM 39.1244 117.3462 14° North  Level Estimated
Fri 09:40:00 AM 39.1244 117.3462 14° North  Level Estimated
Fri 09:41:00 AM 39.1244 117.3462 14° North  Level Estimated

Login

Don't have an account? Register now (free) for customized features, flight alerts, and more!